createdAt,value
2019-01-12T00:00:41.080Z,4.13
2019-01-12T00:03:48.189Z,4.60
2019-01-12T00:06:55.500Z,13.27
2019-01-12T00:10:02.761Z,8.23
2019-01-12T00:13:10.113Z,8.33
2019-01-12T00:16:17.391Z,7.37
2019-01-12T00:19:24.655Z,10.37
2019-01-12T00:22:31.951Z,4.33
2019-01-12T00:25:39.026Z,7.27
2019-01-12T00:28:46.189Z,5.77
2019-01-12T00:31:53.340Z,6.47
2019-01-12T00:35:00.974Z,7.07
2019-01-12T00:38:09.999Z,9.93
2019-01-12T00:41:16.889Z,8.97
2019-01-12T00:44:23.926Z,17.10
2019-01-12T00:47:32.681Z,7.27
2019-01-12T00:50:41.833Z,6.50
2019-01-12T00:53:48.846Z,6.43
2019-01-12T00:56:55.884Z,9.07
2019-01-12T01:00:03.089Z,11.63
2019-01-12T01:03:10.254Z,4.73
2019-01-12T01:06:17.455Z,9.67
2019-01-12T01:09:24.575Z,8.83
2019-01-12T01:12:31.646Z,5.60
2019-01-12T01:15:38.742Z,11.67
2019-01-12T01:18:47.668Z,7.47
2019-01-12T01:21:54.674Z,6.80
2019-01-12T01:25:01.711Z,9.80
2019-01-12T01:28:09.109Z,8.83
2019-01-12T01:31:16.359Z,6.63
2019-01-12T01:34:23.987Z,6.07
2019-01-12T01:37:31.037Z,3.10
2019-01-12T01:40:38.060Z,6.17
2019-01-12T01:43:45.248Z,6.77
2019-01-12T01:46:52.927Z,6.90
2019-01-12T01:50:00.051Z,9.70
2019-01-12T01:53:07.398Z,8.20
2019-01-12T01:56:14.708Z,6.03
2019-01-12T01:59:22.831Z,4.57
2019-01-12T02:02:30.284Z,7.20
2019-01-12T02:05:37.219Z,6.13
2019-01-12T02:08:44.487Z,4.47
2019-01-12T02:11:51.570Z,6.27
2019-01-12T02:14:58.859Z,8.37
2019-01-12T02:18:06.320Z,5.20
2019-01-12T02:21:13.526Z,3.83
2019-01-12T02:24:21.040Z,4.27
2019-01-12T02:27:30.170Z,5.57
2019-01-12T02:30:37.411Z,10.57
2019-01-12T02:33:44.565Z,5.10
2019-01-12T02:36:51.957Z,5.20
2019-01-12T02:40:01.493Z,8.73
2019-01-12T02:43:08.804Z,8.83
2019-01-12T02:46:17.253Z,6.47
2019-01-12T02:49:24.391Z,5.30
2019-01-12T02:52:31.518Z,7.57
2019-01-12T02:55:38.549Z,4.23
2019-01-12T02:58:45.972Z,5.50
2019-01-12T03:01:53.243Z,4.57
2019-01-12T03:05:00.485Z,4.13
2019-01-12T03:08:07.693Z,5.33
2019-01-12T03:11:14.816Z,5.63
2019-01-12T03:14:22.067Z,7.17
2019-01-12T03:17:29.091Z,4.23
2019-01-12T03:20:36.518Z,5.30
2019-01-12T03:23:43.610Z,6.37
2019-01-12T03:26:50.879Z,4.30
2019-01-12T03:29:57.998Z,4.57
2019-01-12T03:33:05.258Z,5.13
2019-01-12T03:36:12.568Z,4.53
2019-01-12T03:39:19.486Z,3.73
2019-01-12T03:42:26.461Z,6.33
2019-01-12T03:45:33.452Z,7.63
2019-01-12T03:48:40.468Z,5.80
2019-01-12T03:51:47.485Z,5.00
2019-01-12T03:54:54.508Z,5.77
2019-01-12T03:58:01.482Z,4.43
2019-01-12T04:01:08.579Z,5.63
2019-01-12T04:04:15.548Z,4.30
2019-01-12T04:07:22.623Z,6.97
2019-01-12T04:10:29.838Z,3.40
2019-01-12T04:13:36.890Z,4.40
2019-01-12T04:16:44.380Z,4.20
2019-01-12T04:19:51.357Z,4.13
2019-01-12T04:22:58.444Z,3.63
2019-01-12T04:26:05.328Z,3.07
2019-01-12T04:29:12.370Z,3.77
2019-01-12T04:32:19.647Z,2.90
2019-01-12T04:35:26.889Z,2.30
2019-01-12T04:38:33.947Z,2.70
2019-01-12T04:41:41.103Z,2.83
2019-01-12T04:44:48.279Z,2.67
2019-01-12T04:47:55.367Z,3.30
2019-01-12T04:51:02.369Z,2.23
2019-01-12T04:54:09.476Z,3.37
2019-01-12T04:57:16.637Z,3.50
2019-01-12T05:00:24.789Z,6.17
2019-01-12T05:03:31.846Z,3.77
2019-01-12T05:06:38.850Z,2.80
2019-01-12T05:09:45.955Z,5.30
2019-01-12T05:12:54.073Z,4.80
2019-01-12T05:16:01.272Z,4.13
2019-01-12T05:19:08.289Z,2.83
2019-01-12T05:22:15.288Z,3.40
2019-01-12T05:25:22.225Z,4.27
2019-01-12T05:28:29.247Z,3.87
2019-01-12T05:31:36.156Z,4.43
2019-01-12T05:34:43.150Z,3.33
2019-01-12T05:37:50.250Z,3.40
2019-01-12T05:40:57.193Z,2.87
2019-01-12T05:44:04.156Z,3.93
2019-01-12T05:47:11.032Z,4.97
2019-01-12T05:50:18.018Z,3.13
2019-01-12T05:53:25.049Z,3.20
2019-01-12T05:56:33.242Z,3.80
2019-01-12T05:59:40.162Z,3.17
2019-01-12T06:02:47.489Z,5.33
2019-01-12T06:05:54.503Z,2.80
2019-01-12T06:09:01.898Z,5.03
2019-01-12T06:12:08.793Z,3.17
2019-01-12T06:15:15.980Z,3.50
2019-01-12T06:18:22.989Z,2.90
2019-01-12T06:21:29.873Z,3.97
2019-01-12T06:24:39.121Z,3.60
2019-01-12T06:27:46.076Z,2.47
2019-01-12T06:30:53.066Z,3.57
2019-01-12T06:34:00.032Z,3.80
2019-01-12T06:37:08.018Z,2.93
2019-01-12T06:40:17.467Z,4.03
2019-01-12T06:43:24.544Z,2.97
2019-01-12T06:46:31.513Z,4.10
2019-01-12T06:49:38.609Z,2.90
2019-01-12T06:52:45.653Z,2.00
2019-01-12T06:55:52.642Z,2.13
2019-01-12T06:58:59.535Z,2.63
2019-01-12T07:02:06.489Z,2.33
2019-01-12T07:05:14.721Z,1.77
2019-01-12T07:08:21.767Z,1.73
2019-01-12T07:11:28.763Z,2.93
2019-01-12T07:14:35.856Z,1.70
2019-01-12T07:17:43.914Z,2.43
2019-01-12T07:20:50.876Z,2.20
2019-01-12T07:23:57.825Z,2.00
2019-01-12T07:27:04.923Z,2.87
2019-01-12T07:30:22.646Z,2.00
2019-01-12T07:33:29.565Z,2.30
2019-01-12T07:36:36.602Z,2.13
2019-01-12T07:39:43.810Z,3.37
2019-01-12T07:42:50.757Z,1.13
2019-01-12T07:45:57.915Z,0.87
2019-01-12T07:49:04.853Z,1.43
2019-01-12T07:52:11.868Z,1.43
2019-01-12T07:55:19.744Z,2.53
2019-01-12T07:58:26.665Z,2.07
2019-01-12T08:01:33.647Z,2.93
2019-01-12T08:04:40.536Z,6.90
2019-01-12T08:07:47.512Z,2.17
2019-01-12T08:10:54.498Z,2.03
2019-01-12T08:14:01.443Z,5.10
2019-01-12T08:17:09.897Z,1.60
2019-01-12T08:20:16.994Z,2.53
2019-01-12T08:23:25.237Z,2.73
2019-01-12T08:26:32.178Z,3.73
2019-01-12T08:29:39.129Z,2.83
2019-01-12T08:32:46.147Z,4.07
2019-01-12T08:35:53.108Z,3.03
2019-01-12T08:39:00.078Z,4.00
2019-01-12T08:42:07.052Z,4.47
2019-01-12T08:45:14.346Z,3.03
2019-01-12T08:48:21.333Z,4.30
2019-01-12T08:51:28.772Z,4.07
2019-01-12T08:54:35.708Z,4.63
2019-01-12T08:57:42.642Z,3.47
2019-01-12T09:00:49.685Z,3.13
2019-01-12T09:03:56.705Z,4.63
2019-01-12T09:07:06.593Z,4.63
2019-01-12T09:10:19.750Z,6.03
2019-01-12T09:13:27.050Z,3.83
2019-01-12T09:16:34.356Z,7.13
2019-01-12T09:19:41.575Z,4.73
2019-01-12T09:22:48.582Z,6.20
2019-01-12T09:25:55.628Z,3.37
2019-01-12T09:29:02.582Z,3.10
2019-01-12T09:32:10.003Z,5.13
2019-01-12T09:35:17.090Z,4.53
2019-01-12T09:38:24.213Z,4.67
2019-01-12T09:41:31.249Z,6.93
2019-01-12T09:44:38.261Z,3.83
2019-01-12T09:47:45.447Z,3.40
2019-01-12T09:50:52.354Z,6.47
2019-01-12T09:54:01.001Z,4.97
2019-01-12T09:57:09.015Z,4.73
2019-01-12T10:00:21.180Z,4.83
2019-01-12T10:03:28.189Z,4.10
2019-01-12T10:06:35.186Z,4.70
2019-01-12T10:09:42.323Z,5.60
2019-01-12T10:12:49.420Z,4.07
2019-01-12T10:15:56.344Z,3.83
2019-01-12T10:19:03.410Z,7.83
2019-01-12T10:22:10.471Z,6.13
2019-01-12T10:25:17.861Z,5.83
2019-01-12T10:28:24.852Z,8.30
2019-01-12T10:31:31.914Z,4.33
2019-01-12T10:34:38.907Z,6.33
2019-01-12T10:37:46.303Z,6.37
2019-01-12T10:40:53.285Z,5.80
2019-01-12T10:44:00.250Z,4.40
2019-01-12T10:47:07.234Z,4.80
2019-01-12T10:50:20.390Z,5.13
2019-01-12T10:53:27.307Z,4.50
2019-01-12T10:56:34.309Z,5.63
2019-01-12T10:59:41.257Z,5.30
2019-01-12T11:02:50.181Z,5.03
2019-01-12T11:05:57.251Z,5.07
2019-01-12T11:09:06.155Z,4.43
2019-01-12T11:12:13.266Z,4.20
2019-01-12T11:15:20.734Z,3.63
2019-01-12T11:18:27.720Z,4.57
2019-01-12T11:21:36.893Z,4.87
2019-01-12T11:24:43.991Z,5.70
2019-01-12T11:27:50.906Z,5.47
2019-01-12T11:30:58.005Z,4.47
2019-01-12T11:34:05.691Z,5.87
2019-01-12T11:37:12.648Z,7.70
2019-01-12T11:40:22.887Z,7.07
2019-01-12T11:43:29.964Z,6.50
2019-01-12T11:46:38.307Z,7.27
2019-01-12T11:49:45.343Z,5.20
2019-01-12T11:52:52.468Z,8.30
2019-01-12T11:55:59.362Z,6.10
2019-01-12T11:59:06.419Z,6.90
2019-01-12T12:02:13.414Z,7.60
2019-01-12T12:05:20.453Z,5.50
2019-01-12T12:08:27.335Z,6.00
2019-01-12T12:11:34.263Z,7.10
2019-01-12T12:14:41.318Z,5.87
2019-01-12T12:17:48.132Z,4.50
2019-01-12T12:20:54.982Z,7.57
2019-01-12T12:24:01.904Z,4.40
2019-01-12T12:27:09.412Z,10.50
2019-01-12T12:30:19.162Z,9.23
2019-01-12T12:33:26.099Z,6.00
2019-01-12T12:36:33.176Z,6.37
2019-01-12T12:39:40.115Z,8.63
2019-01-12T12:42:47.085Z,5.23
2019-01-12T12:45:54.048Z,7.27
2019-01-12T12:49:00.926Z,5.67
2019-01-12T12:52:07.939Z,7.23
2019-01-12T12:55:15.641Z,6.33
2019-01-12T12:58:22.628Z,4.87
2019-01-12T13:01:29.732Z,7.77
2019-01-12T13:04:36.723Z,6.17
2019-01-12T13:07:44.108Z,5.63
2019-01-12T13:10:50.995Z,5.80
2019-01-12T13:13:58.002Z,4.80
2019-01-12T13:17:05.007Z,7.03
2019-01-12T13:20:13.486Z,3.63
2019-01-12T13:23:20.571Z,4.03
2019-01-12T13:26:27.528Z,4.70
2019-01-12T13:29:36.785Z,5.13
2019-01-12T13:32:43.812Z,4.10
2019-01-12T13:35:50.847Z,3.83
2019-01-12T13:38:57.790Z,5.10
2019-01-12T13:42:06.335Z,4.07
2019-01-12T13:45:15.177Z,4.53
2019-01-12T13:48:22.244Z,3.47
2019-01-12T13:51:29.159Z,3.63
2019-01-12T13:54:36.046Z,4.13
2019-01-12T13:57:47.881Z,3.17
2019-01-12T14:00:52.732Z,4.43
2019-01-12T14:04:02.167Z,4.37
2019-01-12T14:07:09.303Z,4.80
2019-01-12T14:10:17.769Z,4.80
2019-01-12T14:13:24.774Z,6.30
2019-01-12T14:16:33.919Z,4.97
2019-01-12T14:19:40.880Z,4.63
2019-01-12T14:22:47.952Z,3.80
2019-01-12T14:25:54.939Z,5.47
2019-01-12T14:29:01.819Z,3.67
2019-01-12T14:32:08.906Z,5.77
2019-01-12T14:35:16.309Z,3.73
2019-01-12T14:38:23.516Z,5.67
2019-01-12T14:41:30.408Z,4.03
2019-01-12T14:44:39.018Z,4.30
2019-01-12T14:47:46.073Z,3.80
2019-01-12T14:50:53.104Z,5.13
2019-01-12T14:54:02.869Z,5.73
2019-01-12T14:57:09.894Z,5.93
2019-01-12T15:00:21.860Z,4.77
2019-01-12T15:03:28.862Z,4.83
2019-01-12T15:06:35.942Z,4.13
2019-01-12T15:09:43.044Z,5.93
2019-01-12T15:12:50.187Z,5.20
2019-01-12T15:15:57.510Z,4.80
2019-01-12T15:19:06.426Z,4.37
2019-01-12T15:22:13.553Z,6.80
2019-01-12T15:25:20.907Z,6.43
2019-01-12T15:28:27.876Z,5.70
2019-01-12T15:31:36.116Z,5.83
2019-01-12T15:34:43.164Z,5.83
2019-01-12T15:37:50.146Z,5.93
2019-01-12T15:40:57.142Z,8.37
2019-01-12T15:44:04.317Z,6.53
2019-01-12T15:47:11.221Z,9.87
2019-01-12T15:50:23.201Z,7.20
2019-01-12T15:53:30.185Z,6.83
2019-01-12T15:56:37.282Z,8.67
2019-01-12T15:59:44.335Z,6.40
2019-01-12T16:02:51.329Z,5.37
2019-01-12T16:05:58.512Z,4.80
2019-01-12T16:09:08.993Z,6.33
2019-01-12T16:12:16.160Z,6.13
2019-01-12T16:15:24.896Z,6.47
2019-01-12T16:18:31.816Z,5.43
2019-01-12T16:21:39.730Z,5.50
2019-01-12T16:24:46.713Z,6.73
2019-01-12T16:27:53.827Z,5.93
2019-01-12T16:31:00.704Z,6.10
2019-01-12T16:34:07.667Z,6.73
2019-01-12T16:37:14.782Z,5.30
2019-01-12T16:40:23.189Z,7.20
2019-01-12T16:43:30.217Z,6.03
2019-01-12T16:46:38.124Z,6.50
2019-01-12T16:49:45.028Z,7.37
2019-01-12T16:52:52.385Z,5.27
2019-01-12T16:55:59.357Z,7.63
2019-01-12T16:59:06.345Z,7.03
2019-01-12T17:02:13.555Z,5.63
2019-01-12T17:05:20.562Z,7.00
2019-01-12T17:08:27.556Z,7.57
2019-01-12T17:11:35.490Z,6.20
2019-01-12T17:14:42.518Z,5.27
2019-01-12T17:17:49.426Z,5.60
2019-01-12T17:20:56.367Z,5.87
2019-01-12T17:24:03.442Z,5.67
2019-01-12T17:27:10.323Z,4.70
2019-01-12T17:30:19.109Z,7.03
2019-01-12T17:33:26.160Z,7.77
2019-01-12T17:36:33.371Z,5.07
2019-01-12T17:39:40.406Z,9.00
2019-01-12T17:42:47.349Z,6.23
2019-01-12T17:45:54.314Z,6.37
2019-01-12T17:49:01.421Z,5.13
2019-01-12T17:52:09.479Z,6.07
2019-01-12T17:55:18.313Z,6.13
2019-01-12T17:58:25.238Z,9.40
2019-01-12T18:01:32.274Z,5.90
2019-01-12T18:04:39.599Z,9.57
2019-01-12T18:07:46.549Z,5.87
2019-01-12T18:10:53.603Z,8.90
2019-01-12T18:14:02.876Z,7.10
2019-01-12T18:17:09.819Z,6.60
2019-01-12T18:20:16.780Z,8.30
2019-01-12T18:23:23.783Z,6.03
2019-01-12T18:26:30.808Z,6.83
2019-01-12T18:29:40.135Z,7.20
2019-01-12T18:32:47.475Z,7.30
2019-01-12T18:35:54.464Z,5.50
2019-01-12T18:39:01.427Z,6.93
2019-01-12T18:42:09.867Z,6.60
2019-01-12T18:45:18.301Z,6.07
2019-01-12T18:48:25.292Z,11.83
2019-01-12T18:51:32.260Z,8.00
2019-01-12T18:54:41.209Z,11.67
2019-01-12T18:57:48.193Z,7.13
2019-01-12T19:00:55.223Z,8.67
2019-01-12T19:04:04.088Z,9.17
2019-01-12T19:07:11.124Z,8.47
2019-01-12T19:10:18.178Z,8.17
2019-01-12T19:13:25.140Z,15.33
2019-01-12T19:16:33.278Z,6.40
2019-01-12T19:19:40.431Z,5.97
2019-01-12T19:22:47.489Z,6.40
2019-01-12T19:25:54.580Z,7.17
2019-01-12T19:29:06.385Z,8.43
2019-01-12T19:32:10.185Z,7.13
2019-01-12T19:35:17.401Z,5.87
2019-01-12T19:38:24.262Z,9.23
2019-01-12T19:41:31.199Z,6.63
2019-01-12T19:44:38.294Z,5.57
2019-01-12T19:47:45.504Z,8.87
2019-01-12T19:50:52.567Z,6.20
2019-01-12T19:53:59.420Z,6.23
2019-01-12T19:57:06.316Z,5.93
2019-01-12T20:00:19.026Z,4.00
2019-01-12T20:03:25.927Z,4.43
2019-01-12T20:06:32.962Z,5.13
2019-01-12T20:09:40.036Z,8.77
2019-01-12T20:12:47.020Z,2.27
2019-01-12T20:15:54.242Z,3.50
2019-01-12T20:19:01.169Z,2.33
2019-01-12T20:22:08.502Z,3.90
2019-01-12T20:25:35.143Z,1.60
2019-01-12T20:28:42.149Z,2.97
2019-01-12T20:32:05.315Z,2.70
2019-01-12T20:36:02.239Z,2.17
2019-01-12T20:39:30.274Z,1.77
2019-01-12T20:43:10.911Z,2.40
2019-01-12T20:47:01.725Z,2.10
2019-01-12T20:50:36.052Z,1.50
2019-01-12T20:54:12.250Z,2.23
2019-01-12T20:57:52.380Z,3.73
2019-01-12T21:01:37.639Z,1.77
2019-01-12T21:04:54.480Z,2.57
2019-01-12T21:08:10.447Z,2.77
2019-01-12T21:11:56.119Z,1.37
2019-01-12T21:15:31.349Z,2.20
2019-01-12T21:18:38.336Z,1.80
2019-01-12T21:21:45.431Z,2.37
2019-01-12T21:24:52.477Z,5.07
2019-01-12T21:27:59.533Z,2.50
2019-01-12T21:31:06.702Z,4.73
2019-01-12T21:34:13.754Z,2.90
2019-01-12T21:37:21.006Z,2.37
2019-01-12T21:40:28.950Z,5.37
2019-01-12T21:43:36.030Z,2.43
2019-01-12T21:46:43.086Z,4.30
2019-01-12T21:49:50.071Z,2.43
2019-01-12T21:52:57.188Z,2.17
2019-01-12T21:56:04.290Z,2.53
2019-01-12T21:59:11.275Z,3.60
2019-01-12T22:02:18.247Z,2.70
2019-01-12T22:05:25.541Z,2.13
2019-01-12T22:08:32.567Z,1.93
2019-01-12T22:11:39.861Z,2.77
2019-01-12T22:14:46.818Z,4.27
2019-01-12T22:17:55.882Z,2.57
2019-01-12T22:21:02.524Z,2.83
2019-01-12T22:24:09.453Z,3.30
2019-01-12T22:27:16.477Z,2.37
2019-01-12T22:30:24.309Z,3.23
2019-01-12T22:33:31.255Z,3.20
2019-01-12T22:36:38.343Z,3.23
2019-01-12T22:39:45.306Z,7.10
2019-01-12T22:42:52.374Z,6.27
2019-01-12T22:45:59.416Z,2.77
2019-01-12T22:49:06.343Z,6.53
2019-01-12T22:52:14.322Z,5.07
2019-01-12T22:55:21.947Z,1.80
2019-01-12T22:58:45.038Z,2.57
2019-01-12T23:02:17.090Z,2.93
2019-01-12T23:05:25.141Z,1.73
2019-01-12T23:08:31.982Z,4.10
2019-01-12T23:11:39.055Z,3.03
2019-01-12T23:14:45.861Z,2.53
2019-01-12T23:17:53.077Z,3.33
2019-01-12T23:21:00.119Z,3.60
2019-01-12T23:24:07.198Z,3.23
2019-01-12T23:27:14.374Z,2.33
2019-01-12T23:30:21.423Z,3.80
2019-01-12T23:33:30.648Z,1.20
2019-01-12T23:36:37.634Z,1.50
2019-01-12T23:39:44.539Z,1.83
2019-01-12T23:42:51.381Z,1.40
2019-01-12T23:45:58.324Z,2.27
2019-01-12T23:49:05.796Z,1.63
2019-01-12T23:52:12.782Z,1.23
2019-01-12T23:55:19.862Z,1.67
2019-01-12T23:58:27.081Z,1.63
